Time;durP1;ratioP1;P1;durP2;ratioP2;P2;SDS_P1;SDS_P2;PMS_P1;PMS_P2;Temp;Humidity;BMP_temperature;BMP_pressure;BME280_temperature;BME280_humidity;BME280_pressure;Samples;Min_cycle;Max_cycle;Signal;HPM_P1;HPM_P2
2020/12/30 00:00:10;;;;;;;7.97;7.17;;;0.80;62.00;;;;;;5017897;28;20199;-62
2020/12/30 00:02:36;;;;;;;9.40;7.57;;;0.90;63.40;;;;;;5018236;28;20307;-61
2020/12/30 00:05:09;;;;;;;9.17;7.50;;;1.10;62.50;;;;;;5015380;28;20287;-61
2020/12/30 00:07:36;;;;;;;8.27;7.38;;;1.20;58.60;;;;;;5017740;28;20214;-62
2020/12/30 00:10:03;;;;;;;9.50;7.43;;;1.40;56.00;;;;;;5021814;28;20563;-61
2020/12/30 00:12:31;;;;;;;8.65;7.10;;;1.50;48.20;;;;;;5017964;28;20185;-61
2020/12/30 00:14:57;;;;;;;7.97;6.78;;;1.60;37.30;;;;;;5016351;28;20185;-61
2020/12/30 00:17:23;;;;;;;8.23;6.40;;;1.70;34.00;;;;;;5028857;28;20196;-61
2020/12/30 00:19:49;;;;;;;7.07;6.38;;;1.80;30.10;;;;;;5025459;28;20814;-61
2020/12/30 00:22:15;;;;;;;7.45;6.55;;;1.90;28.70;;;;;;5017454;28;20212;-61
2020/12/30 00:24:41;;;;;;;7.15;6.45;;;2.00;25.60;;;;;;5020858;28;20520;-61
2020/12/30 00:27:06;;;;;;;8.07;6.00;;;2.10;17.90;;;;;;5010400;28;20188;-61
2020/12/30 00:29:32;;;;;;;7.90;6.30;;;2.30;13.10;;;;;;5017813;28;20178;-61
2020/12/30 00:31:58;;;;;;;7.10;5.97;;;2.40;5.20;;;;;;5027487;28;20539;-61
2020/12/30 00:34:24;;;;;;;7.17;6.47;;;2.50;1.00;;;;;;5027115;28;20190;-61
2020/12/30 00:36:52;;;;;;;7.47;6.40;;;2.60;1.00;;;;;;5025529;28;20182;-62
2020/12/30 00:39:18;;;;;;;8.10;5.85;;;2.70;1.00;;;;;;5021935;28;20229;-61
2020/12/30 00:41:43;;;;;;;6.30;5.50;;;2.80;1.00;;;;;;5029267;28;20228;-61
2020/12/30 00:44:09;;;;;;;6.53;5.20;;;2.90;1.00;;;;;;5019640;28;20540;-61
2020/12/30 00:46:35;;;;;;;8.73;4.90;;;3.00;1.00;;;;;;5022648;28;20181;-61
2020/12/30 00:49:03;;;;;;;4.78;4.38;;;3.10;1.00;;;;;;5024470;28;20171;-61
2020/12/30 00:51:28;;;;;;;5.18;4.55;;;3.20;1.00;;;;;;5034418;28;20652;-61
2020/12/30 00:53:54;;;;;;;5.00;4.60;;;3.30;1.00;;;;;;5043496;28;20309;-61
2020/12/30 00:56:19;;;;;;;4.90;4.43;;;3.40;1.00;;;;;;5024620;28;20254;-61
2020/12/30 00:58:45;;;;;;;4.30;4.00;;;3.50;1.00;;;;;;5014396;28;20537;-61
2020/12/30 01:01:11;;;;;;;5.23;3.83;;;3.60;1.00;;;;;;5028573;28;20289;-61
2020/12/30 01:03:38;;;;;;;4.63;4.20;;;3.60;1.00;;;;;;5028350;28;20186;-62
2020/12/30 01:06:04;;;;;;;4.15;3.75;;;3.70;1.00;;;;;;5025817;28;20243;-62
2020/12/30 01:08:30;;;;;;;5.85;4.68;;;3.80;1.00;;;;;;5024532;28;20201;-62
2020/12/30 01:10:57;;;;;;;3.70;3.40;;;3.80;1.00;;;;;;5020460;28;20174;-62
2020/12/30 01:13:22;;;;;;;3.55;3.25;;;3.80;1.00;;;;;;5028728;28;20430;-62
2020/12/30 01:15:48;;;;;;;4.33;3.90;;;3.80;1.00;;;;;;5028127;28;20201;-62
2020/12/30 01:18:14;;;;;;;4.30;3.70;;;3.90;1.00;;;;;;5027649;28;20200;-62
2020/12/30 01:20:39;;;;;;;3.87;3.57;;;3.90;1.00;;;;;;5027574;28;20332;-62
2020/12/30 01:23:05;;;;;;;4.40;3.57;;;3.90;1.00;;;;;;5028960;28;20268;-62
2020/12/30 01:25:31;;;;;;;3.57;3.27;;;4.00;1.00;;;;;;5027874;28;20321;-62
2020/12/30 01:27:57;;;;;;;4.47;3.47;;;4.00;1.00;;;;;;5016036;28;20286;-62
2020/12/30 01:30:24;;;;;;;3.30;3.00;;;4.00;1.00;;;;;;5017471;28;20480;-62
2020/12/30 01:32:50;;;;;;;3.88;3.47;;;4.00;1.00;;;;;;5023895;28;20436;-62
2020/12/30 01:35:16;;;;;;;3.40;3.10;;;4.00;1.00;;;;;;5020521;28;20621;-62
2020/12/30 01:37:42;;;;;;;3.23;3.03;;;4.00;1.00;;;;;;5024158;28;20441;-62
2020/12/30 01:40:08;;;;;;;4.20;3.08;;;4.00;1.00;;;;;;5018684;28;20474;-62
2020/12/30 01:42:45;;;;;;;5.35;3.00;;;4.00;1.00;;;;;;5012685;28;20644;-62
2020/12/30 01:45:11;;;;;;;4.18;3.22;;;4.00;1.00;;;;;;5023435;28;20191;-62
2020/12/30 01:47:36;;;;;;;3.70;2.90;;;4.00;1.00;;;;;;5022121;28;20183;-62
2020/12/30 01:50:04;;;;;;;3.83;2.70;;;4.00;1.00;;;;;;5025182;28;20478;-62
2020/12/30 01:52:31;;;;;;;5.47;2.83;;;4.00;1.00;;;;;;5026122;28;20186;-62
2020/12/30 01:54:57;;;;;;;3.83;3.10;;;4.00;1.00;;;;;;5025313;28;20211;-62
2020/12/30 01:57:23;;;;;;;3.28;2.97;;;4.10;1.00;;;;;;5028799;28;20209;-62
2020/12/30 01:59:49;;;;;;;4.13;3.50;;;4.10;1.00;;;;;;5026490;28;20182;-62
2020/12/30 02:02:15;;;;;;;3.50;3.20;;;4.10;1.00;;;;;;5027540;28;20703;-62
2020/12/30 02:04:51;;;;;;;4.32;3.50;;;4.00;1.00;;;;;;5028982;28;20429;-62
2020/12/30 02:07:18;;;;;;;3.55;3.10;;;4.00;1.00;;;;;;5023545;28;20273;-62
2020/12/30 02:09:44;;;;;;;4.10;3.40;;;4.00;1.00;;;;;;5030119;28;20202;-62
2020/12/30 02:12:11;;;;;;;3.45;3.15;;;4.00;1.00;;;;;;5022859;28;20654;-62
2020/12/30 02:14:37;;;;;;;4.00;3.67;;;3.90;1.00;;;;;;5016851;28;20273;-62
2020/12/30 02:17:03;;;;;;;4.37;3.20;;;3.90;1.00;;;;;;5028039;28;20596;-62
2020/12/30 02:19:29;;;;;;;3.75;3.42;;;3.90;1.00;;;;;;5018605;28;20429;-62
2020/12/30 02:21:59;;;;;;;3.40;2.90;;;4.00;1.00;;;;;;5011444;28;20210;-62
2020/12/30 02:24:28;;;;;;;3.65;3.33;;;4.00;1.00;;;;;;5020662;28;20525;-62
2020/12/30 02:26:54;;;;;;;3.22;2.90;;;4.00;1.00;;;;;;5026565;28;20180;-62
2020/12/30 02:29:21;;;;;;;3.00;2.80;;;4.00;1.00;;;;;;5017187;28;20215;-62
2020/12/30 02:31:47;;;;;;;3.22;2.55;;;3.90;1.00;;;;;;5020880;28;20634;-62
2020/12/30 02:34:13;;;;;;;4.55;3.15;;;3.80;1.00;;;;;;5012090;28;20187;-61
2020/12/30 02:36:38;;;;;;;3.20;2.90;;;3.80;1.00;;;;;;5033325;28;21013;-62
2020/12/30 02:39:04;;;;;;;2.47;2.27;;;3.80;1.00;;;;;;5030817;28;20189;-61
2020/12/30 02:41:30;;;;;;;3.10;2.87;;;3.70;1.00;;;;;;5027857;28;20243;-62
2020/12/30 02:43:56;;;;;;;3.93;2.70;;;3.70;1.00;;;;;;5021127;28;20445;-62
2020/12/30 02:46:21;;;;;;;2.60;2.27;;;3.80;1.00;;;;;;5023210;28;20425;-62
2020/12/30 02:48:47;;;;;;;2.47;2.27;;;3.80;1.00;;;;;;5021775;28;20190;-61
2020/12/30 02:51:13;;;;;;;2.30;2.10;;;3.90;1.00;;;;;;5030966;28;20194;-62
2020/12/30 02:53:38;;;;;;;3.63;2.30;;;3.90;1.00;;;;;;5029293;28;20268;-62
2020/12/30 02:56:04;;;;;;;2.53;2.33;;;3.90;1.00;;;;;;5029611;28;20213;-62
2020/12/30 02:58:29;;;;;;;3.50;2.67;;;3.90;1.00;;;;;;5020734;28;20548;-62
2020/12/30 03:00:55;;;;;;;2.70;2.50;;;4.00;1.00;;;;;;5012003;28;20990;-62
2020/12/30 03:03:21;;;;;;;2.57;2.37;;;4.10;1.00;;;;;;5026374;28;20191;-62
2020/12/30 03:05:47;;;;;;;2.40;2.10;;;4.10;1.00;;;;;;5023164;28;20652;-61
2020/12/30 03:08:12;;;;;;;2.70;2.47;;;4.10;1.00;;;;;;5023806;28;20517;-62
2020/12/30 03:10:38;;;;;;;2.67;2.30;;;4.20;1.00;;;;;;5018770;28;20205;-61
2020/12/30 03:13:04;;;;;;;2.57;2.37;;;4.10;1.00;;;;;;5027413;28;20572;-62
2020/12/30 03:15:29;;;;;;;2.40;2.20;;;4.10;1.00;;;;;;5018414;28;20263;-62
2020/12/30 03:17:55;;;;;;;3.17;2.47;;;4.00;1.00;;;;;;5013994;28;20176;-61
2020/12/30 03:20:20;;;;;;;2.57;2.37;;;3.90;1.00;;;;;;5019887;28;20276;-61
2020/12/30 03:22:46;;;;;;;3.40;2.10;;;3.90;1.00;;;;;;5030659;28;20688;-61
2020/12/30 03:25:12;;;;;;;3.20;2.90;;;3.80;1.00;;;;;;5021343;28;20561;-61
2020/12/30 03:27:37;;;;;;;2.63;2.40;;;3.70;1.00;;;;;;5010871;28;20168;-61
2020/12/30 03:30:04;;;;;;;3.83;2.20;;;3.70;1.00;;;;;;5022337;28;20179;-61
2020/12/30 03:32:30;;;;;;;2.35;2.15;;;3.60;1.00;;;;;;5024701;28;20176;-61
2020/12/30 03:34:55;;;;;;;2.47;2.23;;;3.60;1.00;;;;;;5015283;28;20252;-61
2020/12/30 03:37:21;;;;;;;3.73;2.10;;;3.50;1.00;;;;;;5027661;28;20638;-62
2020/12/30 03:39:47;;;;;;;2.37;2.13;;;3.50;1.00;;;;;;5027456;28;20373;-61
2020/12/30 03:42:13;;;;;;;3.35;2.55;;;3.30;1.00;;;;;;5014643;28;20210;-61
2020/12/30 03:44:38;;;;;;;2.87;2.00;;;3.20;1.00;;;;;;5023785;28;20182;-61
2020/12/30 03:47:06;;;;;;;4.87;2.53;;;3.10;1.00;;;;;;5010299;28;20183;-61
2020/12/30 03:49:33;;;;;;;2.50;2.30;;;3.00;1.00;;;;;;5010131;28;20210;-61
2020/12/30 03:51:59;;;;;;;4.10;2.20;;;2.90;1.00;;;;;;5024318;28;20190;-61
2020/12/30 03:54:34;;;;;;;2.47;2.28;;;2.90;1.00;;;;;;5031465;28;20188;-61
2020/12/30 03:56:59;;;;;;;2.60;2.13;;;2.80;1.00;;;;;;5029430;28;20188;-61
2020/12/30 03:59:25;;;;;;;2.57;2.37;;;2.80;1.00;;;;;;5029952;28;20323;-61
2020/12/30 04:01:51;;;;;;;2.40;2.20;;;2.70;1.00;;;;;;5022377;28;20213;-61
2020/12/30 04:04:16;;;;;;;2.80;2.20;;;2.60;1.00;;;;;;5015937;28;20193;-61
2020/12/30 04:06:42;;;;;;;2.70;2.50;;;2.60;1.00;;;;;;5025365;28;20246;-61
2020/12/30 04:09:08;;;;;;;2.35;2.17;;;2.60;1.00;;;;;;5026869;28;20221;-61
2020/12/30 04:11:34;;;;;;;3.30;2.23;;;2.60;1.00;;;;;;5021144;28;20337;-61
2020/12/30 04:14:00;;;;;;;3.03;2.00;;;2.50;1.00;;;;;;5028338;28;20185;-61
2020/12/30 04:16:26;;;;;;;2.00;1.87;;;2.50;1.00;;;;;;5011846;28;20181;-61
2020/12/30 04:18:52;;;;;;;2.63;2.43;;;2.50;1.00;;;;;;5029096;28;20190;-61
2020/12/30 04:21:25;;;;;;;3.90;1.90;;;2.50;1.00;;;;;;5029073;28;20461;-61
2020/12/30 04:23:52;;;;;;;2.65;2.20;;;2.50;1.00;;;;;;5021260;28;20214;-61
2020/12/30 04:26:18;;;;;;;4.60;2.60;;;2.50;1.00;;;;;;5017456;28;20190;-61
2020/12/30 04:28:44;;;;;;;3.58;2.63;;;2.50;1.00;;;;;;5026475;28;20948;-61
2020/12/30 04:31:14;;;;;;;3.37;2.40;;;2.50;1.00;;;;;;5023725;28;20189;-61
2020/12/30 04:33:40;;;;;;;2.58;2.38;;;2.50;1.00;;;;;;5028463;28;20194;-61
2020/12/30 04:36:07;;;;;;;2.40;2.17;;;2.50;1.00;;;;;;5011021;28;20309;-61
2020/12/30 04:38:34;;;;;;;3.05;2.22;;;2.50;1.00;;;;;;5018536;28;20193;-61
2020/12/30 04:41:01;;;;;;;5.25;2.50;;;2.50;1.00;;;;;;5053094;28;20241;-61
2020/12/30 04:43:33;;;;;;;2.20;2.00;;;2.50;1.00;;;;;;5014307;28;20185;-61
2020/12/30 04:45:59;;;;;;;2.95;2.30;;;2.60;1.00;;;;;;5018270;28;20242;-61
2020/12/30 04:48:26;;;;;;;3.83;2.75;;;2.60;1.00;;;;;;5009451;28;20549;-61
2020/12/30 04:50:52;;;;;;;2.58;2.05;;;2.60;1.00;;;;;;5013887;28;20191;-61
2020/12/30 04:53:23;;;;;;;3.03;2.10;;;2.60;1.00;;;;;;5025091;28;20188;-61
2020/12/30 04:55:50;;;;;;;2.17;2.03;;;2.60;1.00;;;;;;5016996;28;20197;-61
2020/12/30 04:58:19;;;;;;;2.20;2.10;;;2.70;1.00;;;;;;5028058;28;20189;-61
2020/12/30 05:00:48;;;;;;;2.38;2.22;;;2.70;1.00;;;;;;5014689;28;20288;-61
2020/12/30 05:03:15;;;;;;;3.20;2.15;;;2.70;1.00;;;;;;5026632;28;20534;-61
2020/12/30 05:05:42;;;;;;;2.88;2.67;;;2.70;1.00;;;;;;5020728;28;20182;-62
2020/12/30 05:08:09;;;;;;;4.07;3.67;;;2.60;1.00;;;;;;5025241;28;20182;-62
2020/12/30 05:10:40;;;;;;;2.67;2.47;;;2.60;1.00;;;;;;5021060;28;20717;-61
2020/12/30 05:13:06;;;;;;;4.75;2.38;;;2.60;1.00;;;;;;5021756;28;20197;-61
2020/12/30 05:15:33;;;;;;;3.13;2.80;;;2.50;1.00;;;;;;5032778;28;20245;-61
2020/12/30 05:18:03;;;;;;;4.30;2.47;;;2.50;1.00;;;;;;5023898;28;20185;-61
2020/12/30 05:20:35;;;;;;;2.65;2.10;;;2.40;1.00;;;;;;5029549;28;20185;-62
2020/12/30 05:23:10;;;;;;;2.60;2.40;;;2.30;1.00;;;;;;5024003;28;20190;-62
2020/12/30 05:25:41;;;;;;;2.80;2.60;;;2.30;1.00;;;;;;5030917;28;20181;-62
2020/12/30 05:28:09;;;;;;;4.40;2.67;;;2.20;1.00;;;;;;5038097;28;20204;-61
2020/12/30 05:30:36;;;;;;;3.78;2.80;;;2.20;1.00;;;;;;5031517;28;20241;-62
2020/12/30 05:33:03;;;;;;;3.00;2.50;;;2.20;1.00;;;;;;5031909;28;20176;-62
2020/12/30 05:35:30;;;;;;;3.00;2.70;;;2.20;1.00;;;;;;5028375;28;20177;-62
2020/12/30 05:37:56;;;;;;;4.05;2.60;;;2.10;1.00;;;;;;5026157;28;20213;-61
2020/12/30 05:40:23;;;;;;;2.97;2.67;;;2.10;1.00;;;;;;5026102;28;20308;-61
2020/12/30 05:42:50;;;;;;;3.15;2.85;;;2.00;1.00;;;;;;5017898;28;20463;-61
2020/12/30 05:45:18;;;;;;;3.55;3.03;;;1.90;1.00;;;;;;5032606;28;20533;-61
2020/12/30 05:47:44;;;;;;;2.95;2.40;;;1.90;1.00;;;;;;5027926;28;20170;-62
2020/12/30 05:50:12;;;;;;;4.43;2.80;;;1.80;1.00;;;;;;5012571;28;20201;-62
2020/12/30 05:52:38;;;;;;;3.30;2.90;;;1.70;1.00;;;;;;5021194;28;20259;-62
2020/12/30 05:55:09;;;;;;;4.88;3.20;;;1.70;1.00;;;;;;5030883;28;20343;-62
2020/12/30 05:57:37;;;;;;;4.05;3.22;;;1.70;1.00;;;;;;5029630;28;20180;-62
2020/12/30 06:00:09;;;;;;;6.13;3.33;;;1.60;1.00;;;;;;5029821;28;20177;-62
2020/12/30 06:02:39;;;;;;;4.57;3.33;;;1.50;4.90;;;;;;5033005;28;20737;-62
2020/12/30 06:05:18;;;;;;;4.25;3.20;;;1.40;5.90;;;;;;5020271;28;20208;-62
2020/12/30 06:07:46;;;;;;;4.22;3.30;;;1.40;7.50;;;;;;5018348;28;20177;-62
2020/12/30 06:10:13;;;;;;;4.82;3.50;;;1.30;10.60;;;;;;5012103;28;20280;-62
2020/12/30 06:12:48;;;;;;;4.25;3.55;;;1.30;12.70;;;;;;5028807;28;20196;-63
2020/12/30 06:15:15;;;;;;;4.70;3.60;;;1.20;18.20;;;;;;5025950;28;20187;-62
2020/12/30 06:17:53;;;;;;;3.70;3.00;;;1.20;20.30;;;;;;5022298;28;20180;-62
2020/12/30 06:20:24;;;;;;;3.88;3.58;;;1.20;22.10;;;;;;5016719;28;20929;-63
2020/12/30 06:23:17;;;;;;;5.53;3.60;;;1.10;23.80;;;;;;5023106;28;20689;-63
2020/12/30 06:25:44;;;;;;;4.97;4.47;;;1.10;24.10;;;;;;5013592;28;20189;-62
2020/12/30 06:28:21;;;;;;;4.70;3.92;;;1.10;26.00;;;;;;5023746;28;20204;-63
2020/12/30 06:30:48;;;;;;;8.25;4.50;;;1.10;26.90;;;;;;5014069;28;20277;-62
2020/12/30 06:33:15;;;;;;;4.43;4.03;;;1.10;26.80;;;;;;5032722;28;20177;-61
2020/12/30 06:35:42;;;;;;;3.88;3.47;;;1.10;26.60;;;;;;5025546;28;20183;-59
2020/12/30 06:38:24;;;;;;;6.70;4.30;;;1.10;25.60;;;;;;5031251;28;20660;-60
2020/12/30 06:40:56;;;;;;;4.13;3.72;;;1.00;25.70;;;;;;5031191;28;20323;-61
2020/12/30 06:43:42;;;;;;;7.20;4.43;;;1.00;26.20;;;;;;5027336;28;20714;-61
2020/12/30 06:46:12;;;;;;;4.55;4.15;;;1.00;26.30;;;;;;5017577;28;20186;-61
2020/12/30 06:49:05;;;;;;;5.35;4.38;;;0.90;28.20;;;;;;5012349;28;20481;-60
2020/12/30 06:51:39;;;;;;;5.80;4.13;;;0.90;32.00;;;;;;5030275;28;20655;-61
2020/12/30 06:54:05;;;;;;;5.38;4.60;;;0.90;32.00;;;;;;5026295;28;20192;-60
2020/12/30 06:56:40;;;;;;;5.82;4.85;;;0.90;39.40;;;;;;5010904;28;20198;-60
2020/12/30 06:59:07;;;;;;;9.18;5.25;;;0.90;40.50;;;;;;5011527;28;20327;-61
2020/12/30 07:01:56;;;;;;;6.40;4.90;;;0.90;39.10;;;;;;5029473;28;20201;-60
2020/12/30 07:04:23;;;;;;;6.32;5.00;;;1.00;40.10;;;;;;5025401;28;20213;-60
2020/12/30 07:06:48;;;;;;;7.68;6.15;;;1.10;39.10;;;;;;5024020;28;20180;-60
2020/12/30 07:09:15;;;;;;;5.90;5.30;;;1.10;35.00;;;;;;5011949;28;20239;-61
2020/12/30 07:11:52;;;;;;;4.72;4.32;;;1.00;33.10;;;;;;5024184;28;20601;-61
2020/12/30 07:14:19;;;;;;;7.20;5.00;;;1.10;30.70;;;;;;5022884;28;20659;-60
2020/12/30 07:16:52;;;;;;;7.13;5.72;;;1.10;30.60;;;;;;5028701;28;20634;-60
2020/12/30 07:19:21;;;;;;;7.20;5.13;;;1.10;32.70;;;;;;5020616;28;20269;-61
2020/12/30 07:21:59;;;;;;;7.28;5.40;;;1.10;38.00;;;;;;5027740;28;20351;-61
2020/12/30 07:24:27;;;;;;;7.80;6.30;;;1.20;38.50;;;;;;5020878;28;20172;-61
2020/12/30 07:26:55;;;;;;;5.75;5.20;;;1.30;38.60;;;;;;5027285;28;20205;-60
2020/12/30 07:29:21;;;;;;;8.65;5.53;;;1.30;28.70;;;;;;5026819;28;20537;-61
2020/12/30 07:31:59;;;;;;;7.20;5.55;;;1.30;26.80;;;;;;5023655;28;20181;-60
2020/12/30 07:34:27;;;;;;;6.80;5.25;;;1.30;22.60;;;;;;5026464;28;20216;-61
2020/12/30 07:36:53;;;;;;;6.68;5.55;;;1.40;21.20;;;;;;5020740;28;20674;-61
2020/12/30 07:39:24;;;;;;;7.53;5.90;;;1.40;26.80;;;;;;5015967;28;20236;-60
2020/12/30 07:41:50;;;;;;;6.90;5.35;;;1.40;27.70;;;;;;5020019;28;20225;-61
2020/12/30 07:44:16;;;;;;;7.90;5.90;;;1.40;35.40;;;;;;5023611;28;20191;-59
2020/12/30 07:46:42;;;;;;;8.50;5.33;;;1.40;29.90;;;;;;5023626;28;20234;-59
2020/12/30 07:49:17;;;;;;;6.50;5.90;;;1.40;27.90;;;;;;5019145;28;20447;-60
2020/12/30 07:51:47;;;;;;;8.52;6.13;;;1.40;27.40;;;;;;5015232;28;20212;-59
2020/12/30 07:54:14;;;;;;;9.40;5.95;;;1.40;26.70;;;;;;5017322;28;20205;-59
2020/12/30 07:56:39;;;;;;;8.43;7.10;;;1.40;25.80;;;;;;5023723;28;20204;-59
2020/12/30 07:59:05;;;;;;;7.67;6.17;;;1.40;25.00;;;;;;5036445;28;20185;-59
2020/12/30 08:01:30;;;;;;;8.23;5.97;;;1.50;26.70;;;;;;5024128;28;20267;-60
2020/12/30 08:04:06;;;;;;;7.60;6.47;;;1.50;24.20;;;;;;5022455;28;20173;-60
2020/12/30 08:06:42;;;;;;;8.90;6.10;;;1.50;16.50;;;;;;5015673;28;20188;-60
2020/12/30 08:09:08;;;;;;;10.20;6.90;;;1.60;12.70;;;;;;5017254;28;20189;-62
2020/12/30 08:11:33;;;;;;;8.60;6.40;;;1.60;12.70;;;;;;5020883;28;20238;-60
2020/12/30 08:14:08;;;;;;;8.20;5.60;;;1.70;11.50;;;;;;5028636;28;20200;-60
2020/12/30 08:16:34;;;;;;;6.88;5.88;;;2.00;7.90;;;;;;5028367;28;20202;-60
2020/12/30 08:19:00;;;;;;;7.70;6.10;;;2.20;1.00;;;;;;5021742;28;20194;-61
2020/12/30 08:21:26;;;;;;;6.90;5.93;;;2.50;1.00;;;;;;5021527;28;21033;-60
2020/12/30 08:24:10;;;;;;;6.90;5.77;;;2.80;1.00;;;;;;5045847;28;20213;-60
2020/12/30 08:26:36;;;;;;;7.63;5.43;;;3.30;1.00;;;;;;5029040;28;20180;-61
2020/12/30 08:29:03;;;;;;;5.97;5.00;;;3.60;1.00;;;;;;5028091;28;20213;-61
2020/12/30 08:31:42;;;;;;;6.75;5.57;;;3.90;1.00;;;;;;5029273;28;20194;-60
2020/12/30 08:34:10;;;;;;;7.82;5.28;;;4.20;1.00;;;;;;5025707;28;20714;-61
2020/12/30 08:36:40;;;;;;;6.38;4.90;;;4.20;1.00;;;;;;5018885;28;20875;-61
2020/12/30 08:39:08;;;;;;;10.05;5.55;;;4.00;1.00;;;;;;5019771;28;20661;-61
2020/12/30 08:41:49;;;;;;;6.70;5.25;;;3.80;1.00;;;;;;5028260;28;20202;-61
2020/12/30 08:44:19;;;;;;;5.22;4.63;;;3.70;1.00;;;;;;5025553;28;20531;-62
2020/12/30 08:46:52;;;;;;;14.80;6.20;;;3.60;1.00;;;;;;5026984;28;20202;-62
2020/12/30 08:49:19;;;;;;;8.13;5.10;;;3.50;1.00;;;;;;5016153;28;20175;-60
2020/12/30 08:51:45;;;;;;;6.00;5.40;;;3.60;1.00;;;;;;5027261;28;20201;-60
2020/12/30 08:54:15;;;;;;;6.80;5.40;;;4.00;1.00;;;;;;5024445;28;20187;-59
2020/12/30 08:56:43;;;;;;;5.97;5.38;;;4.20;1.00;;;;;;5029309;28;20727;-60
2020/12/30 08:59:09;;;;;;;8.35;6.38;;;4.30;1.00;;;;;;5020715;28;20308;-59
2020/12/30 09:01:34;;;;;;;6.20;5.60;;;4.30;1.00;;;;;;5024337;28;20289;-60
2020/12/30 09:04:10;;;;;;;7.90;5.73;;;4.20;1.00;;;;;;5023997;28;20182;-60
2020/12/30 09:06:36;;;;;;;9.90;6.38;;;4.10;1.00;;;;;;5015311;28;20253;-61
2020/12/30 09:09:13;;;;;;;7.20;5.95;;;4.10;1.00;;;;;;5025178;28;20505;-60
2020/12/30 09:11:44;;;;;;;7.88;6.32;;;4.10;1.00;;;;;;5027964;28;20716;-61
2020/12/30 09:14:21;;;;;;;7.20;6.50;;;4.00;1.00;;;;;;5036408;28;20185;-60
2020/12/30 09:16:55;;;;;;;8.00;6.55;;;3.90;1.00;;;;;;5032026;28;20189;-60
2020/12/30 09:19:21;;;;;;;8.05;6.55;;;4.00;1.00;;;;;;5029553;28;20387;-60
2020/12/30 09:21:47;;;;;;;10.30;6.53;;;4.10;1.00;;;;;;5021165;28;20206;-60
2020/12/30 09:24:16;;;;;;;8.20;6.50;;;4.00;1.00;;;;;;5025714;28;20953;-59
2020/12/30 09:26:42;;;;;;;10.98;7.53;;;3.80;1.00;;;;;;5039511;28;20692;-60
2020/12/30 09:29:19;;;;;;;7.50;6.50;;;3.70;1.00;;;;;;5025897;28;20193;-60
2020/12/30 09:31:55;;;;;;;9.38;6.85;;;3.60;1.00;;;;;;5024379;28;20190;-60
2020/12/30 09:34:25;;;;;;;10.05;6.88;;;3.60;1.00;;;;;;5021559;28;20268;-60
2020/12/30 09:36:56;;;;;;;7.70;6.05;;;3.60;1.00;;;;;;5038517;28;20637;-60
2020/12/30 09:39:22;;;;;;;10.80;7.80;;;3.70;1.00;;;;;;5015552;28;20601;-60
2020/12/30 09:41:47;;;;;;;9.57;6.63;;;3.90;1.00;;;;;;5022057;28;20210;-60
2020/12/30 09:44:13;;;;;;;8.50;6.50;;;3.80;1.00;;;;;;5019160;28;20224;-60
2020/12/30 09:46:51;;;;;;;11.10;7.43;;;4.00;1.00;;;;;;5034340;28;20909;-60
2020/12/30 09:49:18;;;;;;;9.65;7.03;;;4.00;1.00;;;;;;5028159;28;20438;-60
2020/12/30 09:51:44;;;;;;;9.43;6.55;;;4.10;1.00;;;;;;5022567;28;20300;-60
2020/12/30 09:54:10;;;;;;;9.07;6.90;;;4.20;1.00;;;;;;5026619;28;20612;-60
2020/12/30 09:56:35;;;;;;;7.30;6.00;;;4.40;1.00;;;;;;5018842;28;20278;-60
2020/12/30 09:59:02;;;;;;;10.03;7.17;;;4.60;1.00;;;;;;5019259;28;21344;-64
2020/12/30 10:01:30;;;;;;;9.27;6.50;;;4.80;1.00;;;;;;5010312;28;20203;-61
2020/12/30 10:03:56;;;;;;;7.60;6.20;;;5.00;1.00;;;;;;5005897;28;20179;-63
2020/12/30 10:06:21;;;;;;;7.73;6.40;;;5.30;1.00;;;;;;5011044;28;20197;-61
2020/12/30 10:08:47;;;;;;;9.70;6.70;;;5.80;99.90;;;;;;5009896;28;20426;-61
2020/12/30 10:11:17;;;;;;;7.43;6.57;;;6.30;1.00;;;;;;5011704;28;20713;-60
2020/12/30 10:13:42;;;;;;;10.10;6.60;;;6.80;99.90;;;;;;5006123;28;20528;-60
2020/12/30 10:16:08;;;;;;;7.40;6.60;;;7.50;99.90;;;;;;5011827;28;20518;-61
2020/12/30 10:18:34;;;;;;;9.83;7.23;;;8.20;1.00;;;;;;5007157;28;20182;-60
2020/12/30 10:20:59;;;;;;;8.00;6.87;;;9.10;99.90;;;;;;5034008;28;20210;-59
2020/12/30 10:23:25;;;;;;;7.40;6.47;;;9.70;1.00;;;;;;5031797;28;20209;-60
2020/12/30 10:25:50;;;;;;;8.20;7.27;;;10.10;1.00;;;;;;5035352;28;20181;-61
2020/12/30 10:28:16;;;;;;;7.60;6.73;;;10.50;1.00;;;;;;5032174;28;20186;-61
2020/12/30 10:30:42;;;;;;;10.93;6.57;;;10.40;1.00;;;;;;5030933;28;20248;-61
2020/12/30 10:33:07;;;;;;;9.83;6.90;;;10.70;1.00;;;;;;5030170;28;20320;-60
2020/12/30 10:35:33;;;;;;;7.33;6.53;;;11.30;99.90;;;;;;5037929;28;20754;-61
2020/12/30 10:37:59;;;;;;;7.20;6.50;;;11.90;99.90;;;;;;5024934;28;20631;-60
2020/12/30 10:40:24;;;;;;;8.40;7.23;;;12.10;99.90;;;;;;5026511;28;20277;-60
2020/12/30 10:42:50;;;;;;;7.93;7.00;;;12.60;99.90;;;;;;5026082;28;20209;-60
2020/12/30 10:45:15;;;;;;;8.10;7.17;;;13.20;99.90;;;;;;5029711;28;20705;-60
2020/12/30 10:47:41;;;;;;;7.70;6.33;;;13.50;99.90;;;;;;5023478;28;20225;-60
2020/12/30 10:50:07;;;;;;;7.40;6.57;;;14.20;99.90;;;;;;5031296;28;20188;-60
2020/12/30 10:52:33;;;;;;;8.23;6.33;;;14.70;99.90;;;;;;5026192;28;20184;-60
2020/12/30 10:54:58;;;;;;;6.93;6.33;;;14.60;99.90;;;;;;5030141;28;20330;-60
2020/12/30 10:57:24;;;;;;;8.37;7.10;;;13.70;99.90;;;;;;5020165;28;20194;-60
2020/12/30 10:59:50;;;;;;;8.37;6.90;;;12.70;99.90;;;;;;5028323;28;20287;-60
2020/12/30 11:02:15;;;;;;;7.43;6.83;;;12.20;99.90;;;;;;5033748;28;20228;-60
2020/12/30 11:04:41;;;;;;;8.67;7.77;;;12.00;99.90;;;;;;5027272;28;20833;-60
2020/12/30 11:07:06;;;;;;;10.70;7.30;;;11.30;99.90;;;;;;5013781;28;20191;-61
2020/12/30 11:09:32;;;;;;;8.00;7.23;;;11.20;99.90;;;;;;5025345;28;20725;-60
2020/12/30 11:11:58;;;;;;;7.30;6.70;;;11.30;99.90;;;;;;5017497;28;20233;-60
2020/12/30 11:14:25;;;;;;;9.30;7.47;;;11.10;99.90;;;;;;5023349;28;20187;-60
2020/12/30 11:16:50;;;;;;;8.50;7.43;;;11.20;99.90;;;;;;5014059;28;20186;-61
2020/12/30 11:19:19;;;;;;;7.80;7.00;;;11.70;99.90;;;;;;5033402;28;20450;-61
2020/12/30 11:21:54;;;;;;;9.33;7.27;;;12.50;99.90;;;;;;5027509;28;20880;-61
2020/12/30 11:24:21;;;;;;;7.60;6.80;;;13.10;99.90;;;;;;5025024;28;20432;-61
2020/12/30 11:26:48;;;;;;;7.80;6.67;;;13.00;99.90;;;;;;5022712;28;20487;-61
2020/12/30 11:29:14;;;;;;;7.63;6.93;;;13.50;99.90;;;;;;5021088;28;20445;-61
2020/12/30 11:31:39;;;;;;;7.50;6.80;;;14.20;99.90;;;;;;5022048;28;20448;-61
2020/12/30 11:34:05;;;;;;;7.90;7.10;;;14.70;99.90;;;;;;5016009;28;20470;-62
2020/12/30 11:36:31;;;;;;;7.57;6.87;;;15.20;99.90;;;;;;5013267;28;20191;-61
2020/12/30 11:38:56;;;;;;;8.30;7.53;;;14.80;99.90;;;;;;5019025;28;20173;-61
2020/12/30 11:41:22;;;;;;;8.60;7.77;;;14.90;99.90;;;;;;5030526;28;20205;-61
2020/12/30 11:43:48;;;;;;;7.37;6.50;;;14.90;99.90;;;;;;5024539;28;20660;-61
2020/12/30 11:46:15;;;;;;;7.40;6.70;;;14.60;99.90;;;;;;5006559;28;20190;-61
2020/12/30 11:48:40;;;;;;;8.47;6.70;;;14.70;99.90;;;;;;5020153;28;20248;-62
2020/12/30 11:51:06;;;;;;;7.43;6.50;;;15.30;99.90;;;;;;5015705;28;20833;-63
2020/12/30 11:53:32;;;;;;;7.93;7.20;;;15.50;99.90;;;;;;5016124;28;20208;-63
2020/12/30 11:55:58;;;;;;;7.53;6.80;;;15.60;99.90;;;;;;5020997;28;20209;-63
2020/12/30 11:58:23;;;;;;;7.90;7.10;;;15.30;99.90;;;;;;5022108;28;20194;-62
2020/12/30 12:00:49;;;;;;;7.67;6.97;;;15.60;99.90;;;;;;5019404;28;20496;-62
2020/12/30 12:03:14;;;;;;;7.77;6.93;;;16.00;99.90;;;;;;5025681;28;20182;-61
2020/12/30 12:05:42;;;;;;;9.47;7.73;;;16.20;99.90;;;;;;5023725;28;20269;-61
2020/12/30 12:08:08;;;;;;;9.10;8.20;;;16.00;99.90;;;;;;5012862;28;20592;-61
2020/12/30 12:10:33;;;;;;;7.80;7.00;;;15.50;99.90;;;;;;5020556;28;20421;-61
2020/12/30 12:13:00;;;;;;;8.60;7.70;;;15.60;99.90;;;;;;5030266;28;21021;-61
2020/12/30 12:15:25;;;;;;;7.97;7.17;;;15.70;99.90;;;;;;5036742;28;20196;-61
2020/12/30 12:17:51;;;;;;;7.93;7.23;;;16.00;99.90;;;;;;5022909;28;20792;-62
2020/12/30 12:20:17;;;;;;;9.07;8.27;;;16.20;99.90;;;;;;5022990;28;20196;-62
2020/12/30 12:22:42;;;;;;;9.40;8.50;;;16.30;99.90;;;;;;5022598;28;20206;-62
2020/12/30 12:25:08;;;;;;;8.57;7.77;;;16.20;99.90;;;;;;5015587;28;20230;-61
2020/12/30 12:27:34;;;;;;;9.00;8.07;;;16.20;99.90;;;;;;5026126;28;20680;-62
2020/12/30 12:30:00;;;;;;;9.07;8.17;;;16.00;99.90;;;;;;5025357;28;21194;-61
2020/12/30 12:32:27;;;;;;;8.13;7.30;;;15.80;99.90;;;;;;5024830;28;20331;-62
2020/12/30 12:34:54;;;;;;;9.10;8.20;;;15.90;99.90;;;;;;5016781;28;20238;-62
2020/12/30 12:37:23;;;;;;;9.43;8.33;;;15.90;99.90;;;;;;5018939;28;20445;-61
2020/12/30 12:39:50;;;;;;;8.80;8.00;;;15.50;99.90;;;;;;5024726;28;20476;-61
2020/12/30 12:42:16;;;;;;;9.03;8.23;;;15.20;99.90;;;;;;5024670;28;20492;-62
2020/12/30 12:44:46;;;;;;;9.47;8.67;;;14.80;99.90;;;;;;5023014;28;20847;-60
2020/12/30 12:47:12;;;;;;;8.93;8.03;;;14.60;99.90;;;;;;5023934;28;20427;-63
2020/12/30 12:49:38;;;;;;;8.40;7.50;;;14.90;99.90;;;;;;5017455;28;21151;-61
2020/12/30 12:52:04;;;;;;;8.33;7.53;;;15.20;99.90;;;;;;5015204;28;20175;-61
2020/12/30 12:54:31;;;;;;;7.40;6.70;;;15.40;99.90;;;;;;5015634;28;20449;-61
2020/12/30 12:56:58;;;;;;;8.33;7.13;;;15.70;99.90;;;;;;5020585;28;20440;-61
2020/12/30 12:59:24;;;;;;;7.87;7.17;;;16.00;99.90;;;;;;5015108;28;20448;-60
2020/12/30 13:01:50;;;;;;;8.80;6.87;;;15.80;99.90;;;;;;5020925;28;20476;-61